sensor_id;sensor_type;location;lat;lon;timestamp;P1;durP1;ratioP1;P2;durP2;ratioP2
13404;SDS011;6773;51.192;7.024;2022-07-23T00:02:16;32.40;;;22.45;;
13404;SDS011;6773;51.192;7.024;2022-07-23T00:04:42;33.92;;;22.67;;
13404;SDS011;6773;51.192;7.024;2022-07-23T00:07:08;37.10;;;23.75;;
13404;SDS011;6773;51.192;7.024;2022-07-23T00:09:34;30.13;;;22.65;;
13404;SDS011;6773;51.192;7.024;2022-07-23T00:11:59;37.85;;;22.42;;
13404;SDS011;6773;51.192;7.024;2022-07-23T00:14:25;34.63;;;23.17;;
13404;SDS011;6773;51.192;7.024;2022-07-23T00:16:51;36.13;;;22.48;;
13404;SDS011;6773;51.192;7.024;2022-07-23T00:19:17;33.25;;;23.00;;
13404;SDS011;6773;51.192;7.024;2022-07-23T00:21:43;30.17;;;22.52;;
13404;SDS011;6773;51.192;7.024;2022-07-23T00:24:08;33.65;;;22.20;;
13404;SDS011;6773;51.192;7.024;2022-07-23T00:26:34;29.63;;;21.10;;
13404;SDS011;6773;51.192;7.024;2022-07-23T00:29:00;36.58;;;21.92;;
13404;SDS011;6773;51.192;7.024;2022-07-23T00:31:26;30.25;;;21.20;;
13404;SDS011;6773;51.192;7.024;2022-07-23T00:33:52;30.27;;;21.60;;
13404;SDS011;6773;51.192;7.024;2022-07-23T00:36:21;32.25;;;21.83;;
13404;SDS011;6773;51.192;7.024;2022-07-23T00:38:48;33.60;;;21.40;;
13404;SDS011;6773;51.192;7.024;2022-07-23T00:41:16;28.80;;;21.45;;
13404;SDS011;6773;51.192;7.024;2022-07-23T00:43:42;35.75;;;22.52;;
13404;SDS011;6773;51.192;7.024;2022-07-23T00:46:08;35.60;;;21.13;;
13404;SDS011;6773;51.192;7.024;2022-07-23T00:48:34;29.83;;;21.15;;
13404;SDS011;6773;51.192;7.024;2022-07-23T00:50:59;28.38;;;19.45;;
13404;SDS011;6773;51.192;7.024;2022-07-23T00:53:25;32.60;;;20.20;;
13404;SDS011;6773;51.192;7.024;2022-07-23T00:55:51;25.25;;;17.85;;
13404;SDS011;6773;51.192;7.024;2022-07-23T00:58:17;29.83;;;18.33;;
13404;SDS011;6773;51.192;7.024;2022-07-23T01:00:44;29.27;;;18.02;;
13404;SDS011;6773;51.192;7.024;2022-07-23T01:03:10;27.55;;;17.27;;
13404;SDS011;6773;51.192;7.024;2022-07-23T01:05:36;23.58;;;16.55;;
13404;SDS011;6773;51.192;7.024;2022-07-23T01:08:01;24.45;;;16.95;;
13404;SDS011;6773;51.192;7.024;2022-07-23T01:10:27;27.77;;;17.08;;
13404;SDS011;6773;51.192;7.024;2022-07-23T01:12:56;24.45;;;17.48;;
13404;SDS011;6773;51.192;7.024;2022-07-23T01:15:25;23.60;;;17.50;;
13404;SDS011;6773;51.192;7.024;2022-07-23T01:17:51;21.48;;;15.27;;
13404;SDS011;6773;51.192;7.024;2022-07-23T01:20:17;19.23;;;14.10;;
13404;SDS011;6773;51.192;7.024;2022-07-23T01:22:43;18.20;;;13.02;;
13404;SDS011;6773;51.192;7.024;2022-07-23T01:25:09;21.02;;;13.60;;
13404;SDS011;6773;51.192;7.024;2022-07-23T01:27:35;16.23;;;12.68;;
13404;SDS011;6773;51.192;7.024;2022-07-23T01:30:02;18.10;;;11.98;;
13404;SDS011;6773;51.192;7.024;2022-07-23T01:32:28;16.55;;;12.45;;
13404;SDS011;6773;51.192;7.024;2022-07-23T01:34:53;15.43;;;11.05;;
13404;SDS011;6773;51.192;7.024;2022-07-23T01:37:19;16.95;;;11.88;;
13404;SDS011;6773;51.192;7.024;2022-07-23T01:39:45;16.98;;;11.43;;
13404;SDS011;6773;51.192;7.024;2022-07-23T01:42:10;13.57;;;10.82;;
13404;SDS011;6773;51.192;7.024;2022-07-23T01:44:36;17.45;;;11.65;;
13404;SDS011;6773;51.192;7.024;2022-07-23T01:47:02;18.02;;;10.57;;
13404;SDS011;6773;51.192;7.024;2022-07-23T01:49:28;16.77;;;10.55;;
13404;SDS011;6773;51.192;7.024;2022-07-23T01:51:54;10.38;;;7.35;;
13404;SDS011;6773;51.192;7.024;2022-07-23T01:54:30;7.10;;;6.40;;
13404;SDS011;6773;51.192;7.024;2022-07-23T01:56:57;6.88;;;6.03;;
13404;SDS011;6773;51.192;7.024;2022-07-23T01:59:24;6.30;;;5.70;;
13404;SDS011;6773;51.192;7.024;2022-07-23T02:01:50;6.80;;;6.10;;
13404;SDS011;6773;51.192;7.024;2022-07-23T02:04:17;8.68;;;5.95;;
13404;SDS011;6773;51.192;7.024;2022-07-23T02:06:43;6.28;;;5.55;;
13404;SDS011;6773;51.192;7.024;2022-07-23T02:09:09;7.07;;;5.82;;
13404;SDS011;6773;51.192;7.024;2022-07-23T02:11:35;5.63;;;5.13;;
13404;SDS011;6773;51.192;7.024;2022-07-23T02:14:01;5.35;;;4.85;;
13404;SDS011;6773;51.192;7.024;2022-07-23T02:16:27;9.98;;;5.78;;
13404;SDS011;6773;51.192;7.024;2022-07-23T02:18:54;7.05;;;5.15;;
13404;SDS011;6773;51.192;7.024;2022-07-23T02:21:20;7.07;;;5.07;;
13404;SDS011;6773;51.192;7.024;2022-07-23T02:23:45;6.30;;;4.93;;
13404;SDS011;6773;51.192;7.024;2022-07-23T02:26:11;10.90;;;5.35;;
13404;SDS011;6773;51.192;7.024;2022-07-23T02:28:37;7.68;;;4.88;;
13404;SDS011;6773;51.192;7.024;2022-07-23T02:31:02;5.80;;;4.80;;
13404;SDS011;6773;51.192;7.024;2022-07-23T02:33:29;6.03;;;4.78;;
13404;SDS011;6773;51.192;7.024;2022-07-23T02:35:54;5.05;;;4.40;;
13404;SDS011;6773;51.192;7.024;2022-07-23T02:38:20;5.97;;;4.60;;
13404;SDS011;6773;51.192;7.024;2022-07-23T02:40:46;6.60;;;4.93;;
13404;SDS011;6773;51.192;7.024;2022-07-23T02:43:11;6.57;;;4.90;;
13404;SDS011;6773;51.192;7.024;2022-07-23T02:45:37;5.45;;;4.82;;
13404;SDS011;6773;51.192;7.024;2022-07-23T02:48:03;6.05;;;4.93;;
13404;SDS011;6773;51.192;7.024;2022-07-23T02:50:28;7.82;;;5.15;;
13404;SDS011;6773;51.192;7.024;2022-07-23T02:52:54;6.63;;;4.93;;
13404;SDS011;6773;51.192;7.024;2022-07-23T02:55:19;6.43;;;4.97;;
13404;SDS011;6773;51.192;7.024;2022-07-23T02:57:45;7.18;;;5.50;;
13404;SDS011;6773;51.192;7.024;2022-07-23T03:00:11;5.65;;;5.00;;
13404;SDS011;6773;51.192;7.024;2022-07-23T03:02:37;7.65;;;5.18;;
13404;SDS011;6773;51.192;7.024;2022-07-23T03:05:03;6.03;;;5.43;;
13404;SDS011;6773;51.192;7.024;2022-07-23T03:07:29;8.23;;;5.22;;
13404;SDS011;6773;51.192;7.024;2022-07-23T03:09:55;6.32;;;5.22;;
13404;SDS011;6773;51.192;7.024;2022-07-23T03:12:20;6.13;;;5.40;;
13404;SDS011;6773;51.192;7.024;2022-07-23T03:14:46;6.47;;;4.47;;
13404;SDS011;6773;51.192;7.024;2022-07-23T03:17:11;5.22;;;4.72;;
13404;SDS011;6773;51.192;7.024;2022-07-23T03:19:37;4.80;;;4.40;;
13404;SDS011;6773;51.192;7.024;2022-07-23T03:22:03;4.65;;;4.22;;
13404;SDS011;6773;51.192;7.024;2022-07-23T03:24:29;5.25;;;4.55;;
13404;SDS011;6773;51.192;7.024;2022-07-23T03:27:14;5.65;;;4.53;;
13404;SDS011;6773;51.192;7.024;2022-07-23T03:29:39;5.47;;;4.57;;
13404;SDS011;6773;51.192;7.024;2022-07-23T03:32:05;5.22;;;4.57;;
13404;SDS011;6773;51.192;7.024;2022-07-23T03:34:31;8.00;;;5.28;;
13404;SDS011;6773;51.192;7.024;2022-07-23T03:36:57;7.18;;;5.68;;
13404;SDS011;6773;51.192;7.024;2022-07-23T03:39:22;7.43;;;5.55;;
13404;SDS011;6773;51.192;7.024;2022-07-23T03:41:48;7.63;;;5.93;;
13404;SDS011;6773;51.192;7.024;2022-07-23T03:44:13;6.63;;;5.63;;
13404;SDS011;6773;51.192;7.024;2022-07-23T03:46:39;9.00;;;6.18;;
13404;SDS011;6773;51.192;7.024;2022-07-23T03:49:05;8.52;;;6.18;;
13404;SDS011;6773;51.192;7.024;2022-07-23T03:51:30;6.07;;;5.47;;
13404;SDS011;6773;51.192;7.024;2022-07-23T03:53:56;9.35;;;5.47;;
13404;SDS011;6773;51.192;7.024;2022-07-23T03:56:22;8.82;;;5.78;;
13404;SDS011;6773;51.192;7.024;2022-07-23T03:58:48;6.47;;;5.05;;
13404;SDS011;6773;51.192;7.024;2022-07-23T04:01:14;13.15;;;5.57;;
13404;SDS011;6773;51.192;7.024;2022-07-23T04:03:40;8.05;;;5.53;;
13404;SDS011;6773;51.192;7.024;2022-07-23T04:06:06;5.88;;;5.13;;
13404;SDS011;6773;51.192;7.024;2022-07-23T04:08:31;5.43;;;4.93;;
13404;SDS011;6773;51.192;7.024;2022-07-23T04:10:57;7.93;;;4.93;;
13404;SDS011;6773;51.192;7.024;2022-07-23T04:13:23;7.15;;;5.78;;
13404;SDS011;6773;51.192;7.024;2022-07-23T04:15:49;8.07;;;5.00;;
13404;SDS011;6773;51.192;7.024;2022-07-23T04:18:15;7.97;;;5.97;;
13404;SDS011;6773;51.192;7.024;2022-07-23T04:20:42;11.90;;;4.40;;
13404;SDS011;6773;51.192;7.024;2022-07-23T04:23:11;5.95;;;5.20;;
13404;SDS011;6773;51.192;7.024;2022-07-23T04:25:37;5.72;;;5.15;;
13404;SDS011;6773;51.192;7.024;2022-07-23T04:28:03;5.82;;;4.93;;
13404;SDS011;6773;51.192;7.024;2022-07-23T04:30:29;4.97;;;4.47;;
13404;SDS011;6773;51.192;7.024;2022-07-23T04:32:54;7.15;;;5.70;;
13404;SDS011;6773;51.192;7.024;2022-07-23T04:35:20;7.32;;;5.82;;
13404;SDS011;6773;51.192;7.024;2022-07-23T04:37:46;6.30;;;5.07;;
13404;SDS011;6773;51.192;7.024;2022-07-23T04:40:12;6.00;;;5.40;;
13404;SDS011;6773;51.192;7.024;2022-07-23T04:42:38;8.50;;;6.10;;
13404;SDS011;6773;51.192;7.024;2022-07-23T04:45:04;7.50;;;5.80;;
13404;SDS011;6773;51.192;7.024;2022-07-23T04:47:30;6.75;;;5.22;;
13404;SDS011;6773;51.192;7.024;2022-07-23T04:49:56;8.07;;;5.05;;
13404;SDS011;6773;51.192;7.024;2022-07-23T04:52:22;4.75;;;4.25;;
13404;SDS011;6773;51.192;7.024;2022-07-23T04:54:48;6.45;;;5.05;;
13404;SDS011;6773;51.192;7.024;2022-07-23T04:57:14;6.32;;;4.70;;
13404;SDS011;6773;51.192;7.024;2022-07-23T04:59:40;5.45;;;4.90;;
13404;SDS011;6773;51.192;7.024;2022-07-23T05:02:06;4.85;;;4.40;;
13404;SDS011;6773;51.192;7.024;2022-07-23T05:04:31;6.88;;;4.82;;
13404;SDS011;6773;51.192;7.024;2022-07-23T05:06:57;6.85;;;5.75;;
13404;SDS011;6773;51.192;7.024;2022-07-23T05:09:23;5.95;;;5.13;;
13404;SDS011;6773;51.192;7.024;2022-07-23T05:11:49;6.70;;;5.60;;
13404;SDS011;6773;51.192;7.024;2022-07-23T05:14:14;6.47;;;4.57;;
13404;SDS011;6773;51.192;7.024;2022-07-23T05:16:40;5.75;;;4.68;;
13404;SDS011;6773;51.192;7.024;2022-07-23T05:19:06;4.80;;;4.25;;
13404;SDS011;6773;51.192;7.024;2022-07-23T05:21:32;5.65;;;4.75;;
13404;SDS011;6773;51.192;7.024;2022-07-23T05:23:58;7.18;;;5.22;;
13404;SDS011;6773;51.192;7.024;2022-07-23T05:26:24;5.75;;;4.13;;
13404;SDS011;6773;51.192;7.024;2022-07-23T05:28:50;4.60;;;4.15;;
13404;SDS011;6773;51.192;7.024;2022-07-23T05:31:16;5.05;;;4.55;;
13404;SDS011;6773;51.192;7.024;2022-07-23T05:33:42;7.90;;;5.50;;
13404;SDS011;6773;51.192;7.024;2022-07-23T05:36:08;5.90;;;4.97;;
13404;SDS011;6773;51.192;7.024;2022-07-23T05:38:34;6.72;;;4.40;;
13404;SDS011;6773;51.192;7.024;2022-07-23T05:40:59;6.63;;;5.68;;
13404;SDS011;6773;51.192;7.024;2022-07-23T05:43:25;8.85;;;5.18;;
13404;SDS011;6773;51.192;7.024;2022-07-23T05:45:51;5.50;;;5.00;;
13404;SDS011;6773;51.192;7.024;2022-07-23T05:48:18;4.72;;;4.30;;
13404;SDS011;6773;51.192;7.024;2022-07-23T05:50:44;5.72;;;4.68;;
13404;SDS011;6773;51.192;7.024;2022-07-23T05:53:09;5.32;;;4.65;;
13404;SDS011;6773;51.192;7.024;2022-07-23T05:55:35;5.35;;;4.85;;
13404;SDS011;6773;51.192;7.024;2022-07-23T05:58:01;6.05;;;4.95;;
13404;SDS011;6773;51.192;7.024;2022-07-23T06:00:27;5.97;;;4.78;;
13404;SDS011;6773;51.192;7.024;2022-07-23T06:02:53;7.05;;;4.95;;
13404;SDS011;6773;51.192;7.024;2022-07-23T06:05:19;5.88;;;4.45;;
13404;SDS011;6773;51.192;7.024;2022-07-23T06:07:45;9.13;;;5.13;;
13404;SDS011;6773;51.192;7.024;2022-07-23T06:10:11;5.97;;;4.47;;
13404;SDS011;6773;51.192;7.024;2022-07-23T06:12:37;5.22;;;4.68;;
13404;SDS011;6773;51.192;7.024;2022-07-23T06:15:03;5.25;;;4.75;;
13404;SDS011;6773;51.192;7.024;2022-07-23T06:17:29;5.97;;;5.38;;
13404;SDS011;6773;51.192;7.024;2022-07-23T06:19:55;6.95;;;5.07;;
13404;SDS011;6773;51.192;7.024;2022-07-23T06:22:21;6.50;;;5.90;;
13404;SDS011;6773;51.192;7.024;2022-07-23T06:24:48;5.85;;;5.00;;
13404;SDS011;6773;51.192;7.024;2022-07-23T06:27:14;6.53;;;5.22;;
13404;SDS011;6773;51.192;7.024;2022-07-23T06:29:39;8.82;;;5.47;;
13404;SDS011;6773;51.192;7.024;2022-07-23T06:32:05;6.35;;;4.45;;
13404;SDS011;6773;51.192;7.024;2022-07-23T06:34:32;5.63;;;4.82;;
13404;SDS011;6773;51.192;7.024;2022-07-23T06:36:58;5.50;;;4.78;;
13404;SDS011;6773;51.192;7.024;2022-07-23T06:39:24;5.38;;;4.45;;
13404;SDS011;6773;51.192;7.024;2022-07-23T06:41:49;6.97;;;5.18;;
13404;SDS011;6773;51.192;7.024;2022-07-23T06:44:15;6.13;;;4.88;;
13404;SDS011;6773;51.192;7.024;2022-07-23T06:46:40;7.15;;;5.18;;
13404;SDS011;6773;51.192;7.024;2022-07-23T06:49:06;5.50;;;4.85;;
13404;SDS011;6773;51.192;7.024;2022-07-23T06:51:32;8.15;;;5.05;;
13404;SDS011;6773;51.192;7.024;2022-07-23T06:53:58;7.00;;;5.00;;
13404;SDS011;6773;51.192;7.024;2022-07-23T06:56:23;5.82;;;5.15;;
13404;SDS011;6773;51.192;7.024;2022-07-23T06:58:49;5.45;;;4.57;;
13404;SDS011;6773;51.192;7.024;2022-07-23T07:01:15;8.15;;;5.97;;
13404;SDS011;6773;51.192;7.024;2022-07-23T07:03:41;9.82;;;6.10;;
13404;SDS011;6773;51.192;7.024;2022-07-23T07:06:06;4.53;;;4.13;;
13404;SDS011;6773;51.192;7.024;2022-07-23T07:08:32;6.63;;;4.72;;
13404;SDS011;6773;51.192;7.024;2022-07-23T07:10:58;7.65;;;4.75;;
13404;SDS011;6773;51.192;7.024;2022-07-23T07:13:23;8.18;;;4.82;;
13404;SDS011;6773;51.192;7.024;2022-07-23T07:15:49;4.75;;;4.28;;
13404;SDS011;6773;51.192;7.024;2022-07-23T07:18:14;5.80;;;4.45;;
13404;SDS011;6773;51.192;7.024;2022-07-23T07:20:40;9.02;;;6.72;;
13404;SDS011;6773;51.192;7.024;2022-07-23T07:23:05;9.57;;;5.53;;
13404;SDS011;6773;51.192;7.024;2022-07-23T07:25:31;6.30;;;4.20;;
13404;SDS011;6773;51.192;7.024;2022-07-23T07:27:57;10.18;;;8.27;;
13404;SDS011;6773;51.192;7.024;2022-07-23T07:30:23;8.45;;;5.82;;
13404;SDS011;6773;51.192;7.024;2022-07-23T07:32:49;6.80;;;4.88;;
13404;SDS011;6773;51.192;7.024;2022-07-23T07:35:15;8.38;;;5.65;;
13404;SDS011;6773;51.192;7.024;2022-07-23T07:37:40;8.07;;;5.30;;
13404;SDS011;6773;51.192;7.024;2022-07-23T07:40:06;5.80;;;4.80;;
13404;SDS011;6773;51.192;7.024;2022-07-23T07:42:32;8.82;;;5.97;;
13404;SDS011;6773;51.192;7.024;2022-07-23T07:44:58;8.38;;;6.22;;
13404;SDS011;6773;51.192;7.024;2022-07-23T07:47:23;7.65;;;6.15;;
13404;SDS011;6773;51.192;7.024;2022-07-23T07:49:49;6.13;;;5.15;;
13404;SDS011;6773;51.192;7.024;2022-07-23T07:52:15;7.75;;;4.97;;
13404;SDS011;6773;51.192;7.024;2022-07-23T07:54:40;7.93;;;6.60;;
13404;SDS011;6773;51.192;7.024;2022-07-23T07:57:07;6.43;;;4.63;;
13404;SDS011;6773;51.192;7.024;2022-07-23T07:59:33;5.28;;;4.75;;
13404;SDS011;6773;51.192;7.024;2022-07-23T08:01:58;6.95;;;4.93;;
13404;SDS011;6773;51.192;7.024;2022-07-23T08:04:24;6.97;;;5.88;;
13404;SDS011;6773;51.192;7.024;2022-07-23T08:06:50;7.93;;;5.10;;
13404;SDS011;6773;51.192;7.024;2022-07-23T08:09:15;8.25;;;5.55;;
13404;SDS011;6773;51.192;7.024;2022-07-23T08:11:41;7.18;;;4.63;;
13404;SDS011;6773;51.192;7.024;2022-07-23T08:14:06;7.68;;;5.82;;
13404;SDS011;6773;51.192;7.024;2022-07-23T08:16:32;8.77;;;6.40;;
13404;SDS011;6773;51.192;7.024;2022-07-23T08:18:58;10.15;;;8.60;;
13404;SDS011;6773;51.192;7.024;2022-07-23T08:21:23;8.45;;;6.78;;
13404;SDS011;6773;51.192;7.024;2022-07-23T08:23:49;5.95;;;4.85;;
13404;SDS011;6773;51.192;7.024;2022-07-23T08:26:15;12.15;;;9.48;;
13404;SDS011;6773;51.192;7.024;2022-07-23T08:28:41;8.30;;;6.22;;
13404;SDS011;6773;51.192;7.024;2022-07-23T08:31:07;9.13;;;8.23;;
13404;SDS011;6773;51.192;7.024;2022-07-23T08:33:32;7.28;;;5.35;;
13404;SDS011;6773;51.192;7.024;2022-07-23T08:35:58;6.18;;;4.82;;
13404;SDS011;6773;51.192;7.024;2022-07-23T08:38:24;10.52;;;9.10;;
13404;SDS011;6773;51.192;7.024;2022-07-23T08:40:51;10.93;;;9.23;;
13404;SDS011;6773;51.192;7.024;2022-07-23T08:43:22;9.95;;;8.45;;
13404;SDS011;6773;51.192;7.024;2022-07-23T08:45:50;6.93;;;6.25;;
13404;SDS011;6773;51.192;7.024;2022-07-23T08:48:17;10.57;;;9.52;;
13404;SDS011;6773;51.192;7.024;2022-07-23T08:50:48;5.95;;;5.18;;
13404;SDS011;6773;51.192;7.024;2022-07-23T08:53:25;7.07;;;6.43;;
13404;SDS011;6773;51.192;7.024;2022-07-23T08:55:57;7.45;;;6.00;;
13404;SDS011;6773;51.192;7.024;2022-07-23T08:58:26;5.78;;;5.22;;
13404;SDS011;6773;51.192;7.024;2022-07-23T09:00:52;10.57;;;9.48;;
13404;SDS011;6773;51.192;7.024;2022-07-23T09:03:25;6.38;;;5.53;;
13404;SDS011;6773;51.192;7.024;2022-07-23T09:05:52;12.45;;;11.20;;
13404;SDS011;6773;51.192;7.024;2022-07-23T09:08:24;5.68;;;5.13;;
13404;SDS011;6773;51.192;7.024;2022-07-23T09:10:59;10.10;;;6.03;;
13404;SDS011;6773;51.192;7.024;2022-07-23T09:13:27;7.25;;;6.10;;
13404;SDS011;6773;51.192;7.024;2022-07-23T09:15:54;9.45;;;8.55;;
13404;SDS011;6773;51.192;7.024;2022-07-23T09:31:21;12.75;;;9.82;;
13404;SDS011;6773;51.192;7.024;2022-07-23T09:33:48;12.80;;;11.55;;
13404;SDS011;6773;51.192;7.024;2022-07-23T09:36:14;6.75;;;5.97;;
13404;SDS011;6773;51.192;7.024;2022-07-23T09:38:49;6.80;;;6.07;;
13404;SDS011;6773;51.192;7.024;2022-07-23T09:41:15;6.32;;;5.72;;
13404;SDS011;6773;51.192;7.024;2022-07-23T09:43:41;7.32;;;6.72;;
13404;SDS011;6773;51.192;7.024;2022-07-23T09:46:27;7.75;;;6.95;;
13404;SDS011;6773;51.192;7.024;2022-07-23T09:48:53;9.38;;;7.18;;
13404;SDS011;6773;51.192;7.024;2022-07-23T09:51:21;8.63;;;7.82;;
13404;SDS011;6773;51.192;7.024;2022-07-23T09:53:53;8.70;;;7.88;;
13404;SDS011;6773;51.192;7.024;2022-07-23T09:56:19;9.45;;;8.32;;
13404;SDS011;6773;51.192;7.024;2022-07-23T09:58:45;9.18;;;8.30;;
13404;SDS011;6773;51.192;7.024;2022-07-23T10:01:13;6.97;;;6.38;;
13404;SDS011;6773;51.192;7.024;2022-07-23T10:03:39;7.80;;;7.10;;
13404;SDS011;6773;51.192;7.024;2022-07-23T10:06:07;7.88;;;6.63;;
13404;SDS011;6773;51.192;7.024;2022-07-23T10:08:38;6.70;;;5.25;;
13404;SDS011;6773;51.192;7.024;2022-07-23T10:11:07;8.02;;;7.18;;
13404;SDS011;6773;51.192;7.024;2022-07-23T10:13:34;4.45;;;3.90;;
13404;SDS011;6773;51.192;7.024;2022-07-23T10:16:18;5.28;;;4.00;;
13404;SDS011;6773;51.192;7.024;2022-07-23T10:18:44;8.77;;;7.35;;
13404;SDS011;6773;51.192;7.024;2022-07-23T10:21:11;7.55;;;6.28;;
13404;SDS011;6773;51.192;7.024;2022-07-23T10:23:49;10.57;;;8.30;;
13404;SDS011;6773;51.192;7.024;2022-07-23T10:26:36;7.25;;;6.65;;
13404;SDS011;6773;51.192;7.024;2022-07-23T10:29:32;9.02;;;6.50;;
13404;SDS011;6773;51.192;7.024;2022-07-23T10:37:55;7.38;;;6.68;;
13404;SDS011;6773;51.192;7.024;2022-07-23T10:40:26;5.63;;;5.13;;
13404;SDS011;6773;51.192;7.024;2022-07-23T10:42:53;8.73;;;7.82;;
13404;SDS011;6773;51.192;7.024;2022-07-23T10:45:34;7.68;;;6.15;;
13404;SDS011;6773;51.192;7.024;2022-07-23T10:48:15;8.38;;;7.10;;
13404;SDS011;6773;51.192;7.024;2022-07-23T10:56:15;9.35;;;8.43;;
13404;SDS011;6773;51.192;7.024;2022-07-23T10:58:47;8.27;;;7.47;;
13404;SDS011;6773;51.192;7.024;2022-07-23T11:01:33;11.32;;;10.23;;
13404;SDS011;6773;51.192;7.024;2022-07-23T11:04:01;8.85;;;8.00;;
13404;SDS011;6773;51.192;7.024;2022-07-23T11:09:28;9.63;;;7.95;;
13404;SDS011;6773;51.192;7.024;2022-07-23T11:17:33;12.55;;;10.73;;
13404;SDS011;6773;51.192;7.024;2022-07-23T11:22:46;9.95;;;8.95;;
13404;SDS011;6773;51.192;7.024;2022-07-23T11:27:53;10.15;;;9.25;;
13404;SDS011;6773;51.192;7.024;2022-07-23T11:32:53;10.73;;;9.45;;
13404;SDS011;6773;51.192;7.024;2022-07-23T11:35:40;12.73;;;11.40;;
13404;SDS011;6773;51.192;7.024;2022-07-23T11:38:13;8.65;;;7.85;;
13404;SDS011;6773;51.192;7.024;2022-07-23T11:40:44;9.18;;;8.27;;
13404;SDS011;6773;51.192;7.024;2022-07-23T11:43:10;11.55;;;10.35;;
13404;SDS011;6773;51.192;7.024;2022-07-23T11:45:38;10.10;;;8.85;;
13404;SDS011;6773;51.192;7.024;2022-07-23T11:48:06;11.10;;;8.55;;
13404;SDS011;6773;51.192;7.024;2022-07-23T11:50:34;9.35;;;8.45;;
13404;SDS011;6773;51.192;7.024;2022-07-23T11:53:00;9.63;;;8.73;;
13404;SDS011;6773;51.192;7.024;2022-07-23T11:55:27;9.55;;;8.55;;
13404;SDS011;6773;51.192;7.024;2022-07-23T11:57:54;10.75;;;8.45;;
13404;SDS011;6773;51.192;7.024;2022-07-23T12:00:24;8.23;;;6.05;;
13404;SDS011;6773;51.192;7.024;2022-07-23T12:02:52;10.10;;;7.95;;
13404;SDS011;6773;51.192;7.024;2022-07-23T12:05:24;7.93;;;6.65;;
13404;SDS011;6773;51.192;7.024;2022-07-23T12:07:52;7.60;;;5.47;;
13404;SDS011;6773;51.192;7.024;2022-07-23T12:15:18;8.05;;;5.97;;
13404;SDS011;6773;51.192;7.024;2022-07-23T12:17:47;7.55;;;5.60;;
13404;SDS011;6773;51.192;7.024;2022-07-23T12:20:15;6.80;;;6.10;;
13404;SDS011;6773;51.192;7.024;2022-07-23T12:22:43;6.90;;;6.00;;
13404;SDS011;6773;51.192;7.024;2022-07-23T12:25:12;6.20;;;5.00;;
13404;SDS011;6773;51.192;7.024;2022-07-23T12:27:43;6.13;;;4.70;;
13404;SDS011;6773;51.192;7.024;2022-07-23T12:32:50;6.53;;;4.45;;
13404;SDS011;6773;51.192;7.024;2022-07-23T12:35:18;4.93;;;3.78;;
13404;SDS011;6773;51.192;7.024;2022-07-23T12:37:45;6.10;;;4.35;;
13404;SDS011;6773;51.192;7.024;2022-07-23T12:40:23;5.60;;;3.80;;
13404;SDS011;6773;51.192;7.024;2022-07-23T12:43:04;5.45;;;3.80;;
13404;SDS011;6773;51.192;7.024;2022-07-23T12:53:32;5.53;;;3.25;;
13404;SDS011;6773;51.192;7.024;2022-07-23T12:59:36;3.78;;;3.10;;
13404;SDS011;6773;51.192;7.024;2022-07-23T13:01:44;3.42;;;2.83;;
13404;SDS011;6773;51.192;7.024;2022-07-23T13:04:22;4.55;;;3.05;;
13404;SDS011;6773;51.192;7.024;2022-07-23T13:06:50;5.70;;;3.05;;
13404;SDS011;6773;51.192;7.024;2022-07-23T13:09:24;4.25;;;3.15;;
13404;SDS011;6773;51.192;7.024;2022-07-23T13:11:51;4.95;;;2.60;;
13404;SDS011;6773;51.192;7.024;2022-07-23T13:14:19;4.90;;;3.30;;
13404;SDS011;6773;51.192;7.024;2022-07-23T13:16:46;6.00;;;3.67;;
13404;SDS011;6773;51.192;7.024;2022-07-23T13:19:13;3.45;;;2.72;;
13404;SDS011;6773;51.192;7.024;2022-07-23T13:21:39;3.55;;;2.75;;
13404;SDS011;6773;51.192;7.024;2022-07-23T13:24:06;2.92;;;2.53;;
13404;SDS011;6773;51.192;7.024;2022-07-23T13:26:32;4.32;;;2.80;;
13404;SDS011;6773;51.192;7.024;2022-07-23T13:28:58;4.72;;;3.63;;
13404;SDS011;6773;51.192;7.024;2022-07-23T13:31:23;5.18;;;3.30;;
13404;SDS011;6773;51.192;7.024;2022-07-23T13:33:49;4.85;;;3.08;;
13404;SDS011;6773;51.192;7.024;2022-07-23T13:36:15;5.35;;;3.00;;
13404;SDS011;6773;51.192;7.024;2022-07-23T13:38:40;4.43;;;3.10;;
13404;SDS011;6773;51.192;7.024;2022-07-23T13:41:07;3.70;;;2.70;;
13404;SDS011;6773;51.192;7.024;2022-07-23T13:43:40;5.75;;;2.90;;
13404;SDS011;6773;51.192;7.024;2022-07-23T13:46:15;5.13;;;3.10;;
13404;SDS011;6773;51.192;7.024;2022-07-23T13:48:41;3.28;;;2.90;;
13404;SDS011;6773;51.192;7.024;2022-07-23T13:51:07;2.90;;;2.70;;
13404;SDS011;6773;51.192;7.024;2022-07-23T13:53:32;4.30;;;2.80;;
13404;SDS011;6773;51.192;7.024;2022-07-23T13:55:58;5.20;;;3.40;;
13404;SDS011;6773;51.192;7.024;2022-07-23T13:58:24;5.47;;;3.30;;
13404;SDS011;6773;51.192;7.024;2022-07-23T14:00:50;5.63;;;3.45;;
13404;SDS011;6773;51.192;7.024;2022-07-23T14:03:17;4.97;;;3.35;;
13404;SDS011;6773;51.192;7.024;2022-07-23T14:05:44;6.40;;;3.70;;
13404;SDS011;6773;51.192;7.024;2022-07-23T14:08:10;6.25;;;3.60;;
13404;SDS011;6773;51.192;7.024;2022-07-23T14:10:36;7.18;;;3.30;;
13404;SDS011;6773;51.192;7.024;2022-07-23T14:13:02;5.40;;;3.70;;
13404;SDS011;6773;51.192;7.024;2022-07-23T14:15:29;4.43;;;3.30;;
13404;SDS011;6773;51.192;7.024;2022-07-23T14:17:56;5.28;;;3.20;;
13404;SDS011;6773;51.192;7.024;2022-07-23T14:20:22;4.28;;;3.10;;
13404;SDS011;6773;51.192;7.024;2022-07-23T14:22:48;4.60;;;3.20;;
13404;SDS011;6773;51.192;7.024;2022-07-23T14:25:14;3.72;;;2.95;;
13404;SDS011;6773;51.192;7.024;2022-07-23T14:27:41;4.82;;;3.22;;
13404;SDS011;6773;51.192;7.024;2022-07-23T14:30:07;3.55;;;2.80;;
13404;SDS011;6773;51.192;7.024;2022-07-23T14:32:33;4.35;;;3.40;;
13404;SDS011;6773;51.192;7.024;2022-07-23T14:34:59;4.38;;;3.00;;
13404;SDS011;6773;51.192;7.024;2022-07-23T14:37:25;4.50;;;3.38;;
13404;SDS011;6773;51.192;7.024;2022-07-23T14:39:51;4.88;;;3.50;;
13404;SDS011;6773;51.192;7.024;2022-07-23T14:42:17;4.35;;;3.60;;
13404;SDS011;6773;51.192;7.024;2022-07-23T14:44:42;6.32;;;3.80;;
13404;SDS011;6773;51.192;7.024;2022-07-23T14:47:08;5.22;;;3.40;;
13404;SDS011;6773;51.192;7.024;2022-07-23T14:49:34;4.38;;;2.92;;
13404;SDS011;6773;51.192;7.024;2022-07-23T14:52:01;3.75;;;3.00;;
13404;SDS011;6773;51.192;7.024;2022-07-23T14:54:28;3.70;;;3.40;;
13404;SDS011;6773;51.192;7.024;2022-07-23T14:56:54;3.85;;;3.25;;
13404;SDS011;6773;51.192;7.024;2022-07-23T14:59:21;4.55;;;3.30;;
13404;SDS011;6773;51.192;7.024;2022-07-23T15:01:48;5.25;;;3.45;;
13404;SDS011;6773;51.192;7.024;2022-07-23T15:04:14;5.20;;;3.20;;
13404;SDS011;6773;51.192;7.024;2022-07-23T15:06:40;3.95;;;3.40;;
13404;SDS011;6773;51.192;7.024;2022-07-23T15:09:06;5.13;;;3.55;;
13404;SDS011;6773;51.192;7.024;2022-07-23T15:11:31;4.78;;;3.65;;
13404;SDS011;6773;51.192;7.024;2022-07-23T15:14:02;4.55;;;3.03;;
13404;SDS011;6773;51.192;7.024;2022-07-23T15:16:31;3.55;;;3.25;;
13404;SDS011;6773;51.192;7.024;2022-07-23T15:18:58;6.60;;;2.78;;
13404;SDS011;6773;51.192;7.024;2022-07-23T15:21:24;3.67;;;2.92;;
13404;SDS011;6773;51.192;7.024;2022-07-23T15:23:49;3.83;;;3.22;;
13404;SDS011;6773;51.192;7.024;2022-07-23T15:26:15;4.88;;;3.15;;
13404;SDS011;6773;51.192;7.024;2022-07-23T15:28:43;5.95;;;2.80;;
13404;SDS011;6773;51.192;7.024;2022-07-23T15:31:09;5.72;;;2.92;;
13404;SDS011;6773;51.192;7.024;2022-07-23T15:33:35;3.92;;;3.10;;
13404;SDS011;6773;51.192;7.024;2022-07-23T15:36:01;5.28;;;3.17;;
13404;SDS011;6773;51.192;7.024;2022-07-23T15:38:27;5.47;;;2.75;;
13404;SDS011;6773;51.192;7.024;2022-07-23T15:40:53;4.07;;;2.83;;
13404;SDS011;6773;51.192;7.024;2022-07-23T15:43:20;3.65;;;2.88;;
13404;SDS011;6773;51.192;7.024;2022-07-23T15:45:47;3.00;;;2.70;;
13404;SDS011;6773;51.192;7.024;2022-07-23T15:48:13;4.15;;;3.10;;
13404;SDS011;6773;51.192;7.024;2022-07-23T15:50:38;6.68;;;3.22;;
13404;SDS011;6773;51.192;7.024;2022-07-23T15:53:04;2.97;;;2.75;;
13404;SDS011;6773;51.192;7.024;2022-07-23T15:55:30;4.00;;;2.90;;
13404;SDS011;6773;51.192;7.024;2022-07-23T15:57:55;3.10;;;2.80;;